ADDS METAR Data INFO
IDs: Format: Raw Decoded Include TAF

Data at: 0255 UTC 21 Oct 2017

KSRC 210156Z AUTO 00000KT 10SM CLR 18/17 A3008 RMK AO2 SLP195 T01830172
KSRC 210056Z AUTO 00000KT 10SM CLR 19/17 A3008 RMK AO2 SLP195 T01940172
KSRC 202356Z AUTO 00000KT 10SM CLR 19/17 A3008 RMK AO2 SLP196 6//// T01890172 10250 20183 55010 TSNO
KSRC 202256Z AUTO 00000KT 10SM CLR 21/17 A3008 RMK AO2 SLP195 T02060172
KSRC 202156Z AUTO 10SM CLR 23/16 A3009 RMK AO2 SLP197 T02280161
KSRC 202056Z AUTO 16007KT 10SM CLR 23/16 A3011 RMK AO2 SLP205 6//// T02330156 56022 TSNO
KSRC 201956Z AUTO 15009KT 10SM CLR 25/17 A3012 RMK AO2 SLP207 T02500167
KSRC 201856Z AUTO 20007KT 10SM CLR 24/16 A3014 RMK AO2 SLP213 T02440161
KSRC 201756Z AUTO 16009KT 10SM CLR 24/16 A3018 RMK AO2 SLP227 6//// T02390161 10239 20083 58020
KSRC 201656Z AUTO 18007KT 10SM CLR 23/16 A3021 RMK AO2 SLP237 T02330161
KSRC 201556Z AUTO 14003KT 10SM CLR 18/14 A3023 RMK AO2 SLP244 T01780144
KSRC 201456Z AUTO 08003KT 10SM CLR 14/13 A3024 RMK AO2 SLP249 6//// T01440133
KSRC 201356Z AUTO 00000KT 10SM CLR 12/12 A3023 RMK AO2 SLP248 T01170117
KSRC 201308Z AUTO 00000KT 7SM CLR 09/09 A3022 RMK AO2
KSRC 201256Z AUTO 00000KT 2 1/2SM BR CLR 09/09 A3022 RMK AO2 SLP242 T00890089
KSRC 201235Z AUTO 2 1/2SM BR 09/09 A3022 RMK AO2 $
KSRC 201210Z AUTO 5SM BR 08/08 A3022 RMK AO2 $
KSRC 201158Z AUTO 2SM BR FEW001 09/09 RMK AO2 $
KSRC 201156Z AUTO 1 1/2SM BR CLR 09/09 RMK AO2 SLPNO 6//// 7//// T00890089 10106 20083 $
KSRC 201149Z AUTO 00000KT 1 3/4SM BR CLR 08/08 A3021 RMK AO2
KSRC 201111Z AUTO 00000KT 4SM BR CLR 08/08 A3021 RMK AO2
KSRC 201056Z AUTO 00000KT 2 1/2SM BR CLR 09/09 A3021 RMK AO2 SLP238 T00890089
KSRC 201043Z AUTO 00000KT 2 1/2SM BR CLR 09/09 A3021 RMK AO2 VIS 1 3/4V5
KSRC 201009Z AUTO 00000KT 6SM BR CLR 09/09 A3020 RMK AO2
KSRC 200956Z AUTO 00000KT 2SM BR CLR 09/09 A3020 RMK AO2 VIS 3/4V5 SLP234 T00890089
KSRC 200950Z AUTO 00000KT 1 3/4SM BR CLR 09/09 A3020 RMK AO2 VIS 3/4V4
KSRC 200932Z AUTO 7SM CLR 10/10 RMK AO2 $
KSRC 200919Z AUTO 03005KT 2SM BR CLR 10/10 A3020 RMK AO2
KSRC 200914Z AUTO 01003KT 1SM BR CLR 09/09 A3020 RMK AO2 VIS 1/2V5
KSRC 200904Z AUTO 00000KT 1/2SM FG CLR 08/08 A3020 RMK AO2
KSRC 200901Z AUTO 00000KT 1 1/4SM BR CLR 09/09 A3020 RMK AO2 VIS 1/4V5
KSRC 200856Z AUTO 00000KT 3SM BR CLR 09/09 A3020 RMK AO2 SLP235 6//// T00940094
KSRC 200837Z AUTO 00000KT 3SM BR CLR 09/09 A3020 RMK AO2
KSRC 200815Z AUTO 00000KT 1 3/4SM BR CLR 09/09 A3020 RMK AO2 VIS 3/4V4
KSRC 200756Z AUTO 00000KT 4SM BR CLR 09/09 RMK AO2 SLPNO T00940094 $
KSRC 200656Z AUTO 00000KT 4SM BR CLR 10/10 A3020 RMK AO2 SLP236 T01000100
KSRC 200556Z AUTO 00000KT 10SM FEW001 11/11 A3020 RMK AO2 SLP235 6//// T01060106 10189 20106 50000
KSRC 200456Z AUTO 00000KT 10SM CLR 11/11 A3020 RMK AO2 SLP235 T01110111 402720061
KSRC 200356Z AUTO 00000KT 10SM CLR 12/12 A3020 RMK AO2 SLP237 T01170117
KSRC 200256Z AUTO 00000KT 10SM CLR 13/13 A3020 RMK AO2 SLP236 6//// T01280128
KSRC 200156Z AUTO 00000KT 10SM CLR 14/13 A3018 RMK AO2 SLP231 T01390133
KSRC 200056Z AUTO 00000KT 10SM CLR 15/13 A3018 RMK AO2 SLP231 T01500128 TSNO
KSRC 192356Z AUTO 4SM HZ FEW001 19/13 RMK AO2 SLPNO 6//// T01890128 10272 20189 $
KSRC 192256Z AUTO 14003KT 10SM CLR 22/14 A3017 RMK AO2 SLP227 T02170144
KSRC 192156Z AUTO 16005KT 10SM CLR 25/13 A3017 RMK AO2 SLP223 T02500128
KSRC 192056Z AUTO 16005KT 10SM CLR 27/12 A3017 RMK AO2 SLP225 6//// T02670117 56021
KSRC 191956Z AUTO 12004KT 7SM CLR 26/13 A3018 RMK AO2 SLP228 T02560128
KSRC 191856Z AUTO 00000KT 10SM CLR 25/13 A3020 RMK AO2 SLP235 T02500128
KSRC 191756Z AUTO 14005KT 10SM CLR 23/14 A3023 RMK AO2 SLP247 6//// T02280139 10228 20067 58010
KSRC 191656Z AUTO 00000KT 10SM CLR 21/13 A3026 RMK AO2 SLP256 T02060128
KSRC 191556Z AUTO 00000KT 10SM CLR 18/13 A3027 RMK AO2 SLP259 T01830128
KSRC 191456Z AUTO 00000KT 10SM CLR 15/12 A3026 RMK AO2 SLP258 6//// T01500122 51014